createdAt,value
2022-09-06T00:03:54.285Z,12.70
2022-09-06T00:09:24.281Z,12.66
2022-09-06T00:14:26.137Z,12.51
2022-09-06T00:19:27.895Z,12.38
2022-09-06T00:24:29.741Z,12.33
2022-09-06T00:29:31.856Z,12.30
2022-09-06T00:34:33.957Z,12.30
2022-09-06T00:39:35.816Z,12.31
2022-09-06T00:44:38.527Z,12.29
2022-09-06T00:49:47.574Z,12.23
2022-09-06T00:54:50.286Z,12.22
2022-09-06T00:59:52.146Z,12.25
2022-09-06T01:04:54.975Z,12.25
2022-09-06T01:10:15.370Z,12.26
2022-09-06T01:15:35.959Z,12.23
2022-09-06T01:20:42.605Z,12.24
2022-09-06T01:26:10.845Z,12.26
2022-09-06T01:31:19.046Z,12.24
2022-09-06T01:36:54.366Z,12.25
2022-09-06T01:42:22.170Z,12.27
2022-09-06T01:47:30.256Z,12.25
2022-09-06T01:52:50.657Z,12.22
2022-09-06T01:58:24.214Z,12.18
2022-09-06T02:03:56.906Z,12.14
2022-09-06T02:09:07.675Z,12.09
2022-09-06T02:14:11.914Z,12.06
2022-09-06T02:19:37.098Z,12.06
2022-09-06T02:24:40.784Z,12.07
2022-09-06T02:29:42.596Z,12.05
2022-09-06T02:34:46.229Z,12.02
2022-09-06T02:39:53.699Z,11.95
2022-09-06T02:45:02.547Z,11.89
2022-09-06T02:50:04.354Z,11.86
2022-09-06T02:55:19.194Z,11.80
2022-09-06T03:00:34.727Z,11.83
2022-09-06T03:05:36.774Z,11.88
2022-09-06T03:10:38.518Z,11.89
2022-09-06T03:15:40.296Z,11.87
2022-09-06T03:20:42.036Z,11.80
2022-09-06T03:25:44.716Z,11.66
2022-09-06T03:30:47.372Z,11.52
2022-09-06T03:35:50.416Z,11.41
2022-09-06T03:40:52.979Z,11.35
2022-09-06T03:45:57.134Z,11.31
2022-09-06T03:50:59.205Z,11.31
2022-09-06T03:56:00.933Z,11.31
2022-09-06T04:01:04.997Z,11.29
2022-09-06T04:06:07.457Z,11.28
2022-09-06T04:11:09.253Z,11.29
2022-09-06T04:16:11.410Z,11.32
2022-09-06T04:21:13.171Z,11.44
2022-09-06T04:26:15.113Z,11.60
2022-09-06T04:31:17.192Z,11.73
2022-09-06T04:36:19.211Z,11.80
2022-09-06T04:41:22.481Z,11.97
2022-09-06T04:46:25.410Z,12.82
2022-09-06T04:51:27.762Z,14.02
2022-09-06T04:56:30.257Z,15.13
2022-09-06T05:01:32.176Z,15.83
2022-09-06T05:06:34.246Z,15.93
2022-09-06T05:11:36.074Z,15.63
2022-09-06T05:16:37.942Z,15.38
2022-09-06T05:21:39.892Z,15.31
2022-09-06T05:26:42.000Z,15.30
2022-09-06T05:31:43.922Z,15.31
2022-09-06T05:36:46.320Z,15.36
2022-09-06T05:41:48.109Z,15.37
2022-09-06T05:46:49.811Z,15.40
2022-09-06T05:51:52.273Z,15.52
2022-09-06T05:56:54.057Z,15.60
2022-09-06T06:01:55.834Z,15.72
2022-09-06T06:06:57.601Z,15.77
2022-09-06T06:11:59.308Z,15.87
2022-09-06T06:17:02.019Z,16.13
2022-09-06T06:22:03.868Z,16.33
2022-09-06T06:27:05.583Z,16.52
2022-09-06T06:32:07.292Z,16.70
2022-09-06T06:37:09.129Z,16.91
2022-09-06T06:42:11.024Z,16.76
2022-09-06T06:47:16.764Z,16.60
2022-09-06T06:52:18.549Z,16.51
2022-09-06T06:57:20.378Z,16.41
2022-09-06T07:02:22.321Z,16.29
2022-09-06T07:07:32.285Z,16.52
2022-09-06T07:12:35.747Z,16.73
2022-09-06T07:17:37.788Z,16.62
2022-09-06T07:22:54.442Z,16.49
2022-09-06T07:27:59.033Z,16.42
2022-09-06T07:33:01.575Z,16.47
2022-09-06T07:38:04.868Z,16.35
2022-09-06T07:43:06.801Z,16.19
2022-09-06T07:48:08.629Z,16.20
2022-09-06T07:53:15.110Z,16.69
2022-09-06T07:58:19.396Z,17.20
2022-09-06T08:03:21.265Z,17.67
2022-09-06T08:14:00.217Z,18.59
2022-09-06T08:19:03.907Z,19.09
2022-09-06T08:24:06.887Z,19.26
2022-09-06T08:29:09.224Z,18.96
2022-09-06T08:34:12.838Z,18.84
2022-09-06T08:39:21.183Z,18.95
2022-09-06T08:44:55.360Z,18.83
2022-09-06T08:50:13.160Z,18.61
2022-09-06T08:55:47.491Z,18.71
2022-09-06T09:01:07.671Z,19.01
2022-09-06T09:06:10.447Z,19.29
2022-09-06T09:11:17.560Z,19.73
2022-09-06T09:16:33.273Z,20.22
2022-09-06T09:21:48.580Z,20.68
2022-09-06T09:27:05.699Z,21.03
2022-09-06T09:32:08.379Z,21.27
2022-09-06T09:42:35.729Z,21.79
2022-09-06T09:47:37.426Z,22.28
2022-09-06T09:52:43.472Z,22.81
2022-09-06T09:57:47.242Z,23.25
2022-09-06T10:02:50.070Z,23.80
2022-09-06T10:07:51.986Z,24.40
2022-09-06T10:13:12.459Z,24.52
2022-09-06T10:18:29.308Z,24.78
2022-09-06T10:29:09.792Z,24.44
2022-09-06T10:34:17.221Z,24.20
2022-09-06T10:39:21.787Z,24.04
2022-09-06T10:44:26.293Z,23.64
2022-09-06T10:49:28.689Z,23.59
2022-09-06T10:54:31.080Z,23.82
2022-09-06T10:59:42.121Z,24.17
2022-09-06T11:10:27.679Z,24.11
2022-09-06T11:15:33.099Z,24.03
2022-09-06T11:20:53.712Z,24.11
2022-09-06T11:26:19.348Z,24.47
2022-09-06T11:36:48.000Z,23.77
2022-09-06T11:41:49.756Z,23.65
2022-09-06T11:46:51.489Z,23.74
2022-09-06T11:51:53.835Z,24.07
2022-09-06T11:57:03.640Z,24.11
2022-09-06T12:02:07.031Z,24.27
2022-09-06T12:07:11.172Z,24.29
2022-09-06T12:12:32.837Z,24.23
2022-09-06T12:17:46.717Z,24.58
2022-09-06T12:22:48.632Z,24.98
2022-09-06T12:27:52.621Z,24.71
2022-09-06T12:32:54.416Z,24.35
2022-09-06T12:38:00.162Z,24.02
2022-09-06T12:43:03.507Z,23.87
2022-09-06T12:48:09.522Z,24.05
2022-09-06T12:53:24.556Z,24.26
2022-09-06T12:58:29.622Z,24.19
2022-09-06T13:03:40.649Z,24.13
2022-09-06T13:08:45.617Z,24.17
2022-09-06T13:13:49.102Z,24.20
2022-09-06T13:18:51.011Z,24.20
2022-09-06T13:23:52.982Z,24.07
2022-09-06T13:28:54.658Z,24.15
2022-09-06T18:21:31.098Z,16.18
2022-09-06T18:26:33.328Z,16.04
2022-09-06T18:31:35.750Z,15.86
2022-09-06T18:36:38.249Z,15.68
2022-09-06T18:41:58.457Z,15.54
2022-09-06T18:47:06.799Z,15.41
2022-09-06T18:52:08.676Z,15.36
2022-09-06T18:57:11.239Z,15.45
2022-09-06T19:02:13.150Z,15.50
2022-09-06T19:16:19.800Z,15.42
2022-09-06T19:21:24.790Z,15.40
2022-09-06T19:26:29.303Z,15.37
2022-09-06T19:31:42.333Z,15.33
2022-09-06T19:36:45.098Z,15.27
2022-09-06T19:41:47.799Z,15.55
2022-09-06T19:46:49.868Z,17.29
2022-09-06T19:51:53.124Z,18.26
2022-09-06T19:56:54.828Z,18.31
2022-09-06T20:01:56.886Z,16.94
2022-09-06T20:06:58.722Z,15.92
2022-09-06T20:12:00.432Z,15.24
2022-09-06T20:17:22.749Z,14.81
2022-09-06T20:22:24.205Z,14.48
2022-09-06T20:27:25.954Z,14.27
2022-09-06T20:32:49.332Z,14.73
2022-09-06T20:38:04.689Z,16.64
2022-09-06T20:43:12.807Z,17.42
2022-09-06T20:48:14.560Z,17.90
2022-09-06T20:53:16.308Z,17.56
2022-09-06T20:58:18.079Z,16.32
2022-09-06T21:03:20.546Z,15.51
2022-09-06T21:08:41.875Z,14.99
2022-09-06T21:14:05.293Z,14.67
2022-09-06T21:19:12.526Z,14.52
2022-09-06T21:24:14.829Z,14.44
2022-09-06T21:29:16.595Z,14.39
2022-09-06T21:34:18.454Z,14.36
2022-09-06T21:39:20.180Z,14.34
2022-09-06T21:44:22.077Z,14.34
2022-09-06T21:49:23.788Z,14.28
2022-09-06T21:54:25.624Z,14.21
2022-09-06T21:59:47.288Z,14.10
2022-09-06T22:04:59.532Z,13.97
2022-09-06T22:10:01.272Z,14.41
2022-09-06T22:15:03.326Z,16.08
2022-09-06T22:20:06.646Z,16.84
2022-09-06T22:25:08.652Z,16.83
2022-09-06T22:30:11.135Z,15.66
2022-09-06T22:35:12.994Z,14.80
2022-09-06T22:40:14.937Z,14.22
2022-09-06T22:45:19.839Z,13.77
2022-09-06T22:50:21.618Z,13.41
2022-09-06T22:55:24.245Z,13.16
2022-09-06T23:00:27.473Z,13.53
2022-09-06T23:05:31.401Z,15.22
2022-09-06T23:10:33.224Z,16.28
2022-09-06T23:15:36.453Z,16.81
2022-09-06T23:20:38.301Z,16.74
2022-09-06T23:25:40.356Z,15.56
2022-09-06T23:30:42.084Z,14.70
2022-09-06T23:35:50.285Z,14.22
2022-09-06T23:40:52.152Z,13.84
2022-09-06T23:45:53.960Z,13.57
2022-09-06T23:50:55.707Z,13.35
2022-09-06T23:55:57.781Z,13.15
